Buoy 46770

sailwx.info

Track history (hours):
 
Tides and Currents Weather Stations Pressure Air Temp Water Temp Dewpoint Dewpoint Depression Visibility Wind Speed Wind Dir Waves Ship Positions

Drifting buoy 46770

Last reported at 2018-Apr-24 17:00 UTC. Time now 2018-Apr-24 18:15 UTC.
Position N 19°31' W 158°36'.

Barometer 1017.1 mb
Water temperature 25.1 ° C

Date/timePositionNaut miles runAvg speedWind from/ knotsBaromVisibWave heightAir tempDewpointWater temp
2018-Apr-24 17:00N 19°31' W 158°36'0 0.0 1017.1 25.1
2018-Apr-24 16:00N 19°31' W 158°36'2 1.6 1016.3 25.1
2018-Apr-24 15:00N 19°32' W 158°35'0 0.0 1015.9 25.2
2018-Apr-24 14:00N 19°32' W 158°35'6 1.0 1015.8 25.2
2018-Apr-24 08:00N 19°36' W 158°30'1 0.8 1017.9 25.2
2018-Apr-24 07:00N 19°37' W 158°29'1 1.3 1017.4 25.3
2018-Apr-24 06:00N 19°37' W 158°28'1 0.6 1017.1 25.3
2018-Apr-24 05:00N 19°37' W 158°28'0 0.0 1016.8 25.3
2018-Apr-24 04:00N 19°37' W 158°28'2 2.1 1015.9 25.4
2018-Apr-24 03:00N 19°38' W 158°26'0 0.0 1015.4 25.4
2018-Apr-24 02:00N 19°38' W 158°26'5 0.9 1015.3 25.4
2018-Apr-23 21:00N 19°41' W 158°22'1 0.8 1017.7 25.2
2018-Apr-23 20:00N 19°41' W 158°21'1 0.8 1017.9 25.2
2018-Apr-23 19:00N 19°42' W 158°20'0 0.0 1017.6 25.2
2018-Apr-23 18:00N 19°42' W 158°20'1 1.1 1017.5 25.2
2018-Apr-23 17:00N 19°42' W 158°19'1 0.6 1017.0 25.1
2018-Apr-23 16:00N 19°42' W 158°19'1 1.1 1016.5 25.1
2018-Apr-23 15:00N 19°42' W 158°17'0 0.0 1016.1 25.1
2018-Apr-23 14:00N 19°42' W 158°17'6 6.4 1016.0 25.1
2018-Apr-23 13:00N 19°45' W 158°11'0 0.0 1016.0 25.1
2018-Apr-23 12:00N 19°45' W 158°11'0 0.0 1016.6 25.1
2018-Apr-23 08:00N 19°45' W 158°11'1 0.8 1018.3 25.0
2018-Apr-23 07:00N 19°46' W 158°11'1 1.3 1018.0 25.0
2018-Apr-23 06:00N 19°46' W 158°10'0 0.0 1017.4 25.1
2018-Apr-23 05:00N 19°46' W 158°10'1 0.6 1016.6 25.1
2018-Apr-23 04:00N 19°46' W 158°09'1 0.6 1015.9 25.1
2018-Apr-23 03:00N 19°46' W 158°08'2 2.3 1015.4 25.2
2018-Apr-23 02:00N 19°46' W 158°06'2 1.8 1015.4 25.1
2018-Apr-23 01:00N 19°47' W 158°04'4 4.1 1015.5 25.1
2018-Apr-23 00:00N 19°48' W 158°00'0 0.0 1015.9 25.0
2018-Apr-22 23:00N 19°48' W 158°00'0 0.0 1016.6 24.8
2018-Apr-22 21:00N 19°48' W 158°00'1 1.1 1017.5 24.6
2018-Apr-22 20:00N 19°48' W 157°59'1 1.3 1017.7 24.5
2018-Apr-22 19:00N 19°49' W 157°58'2 1.7 1017.9 24.5
2018-Apr-22 18:00N 19°49' W 157°56'5 4.5 1017.7 24.4
2018-Apr-22 17:00N 19°49' W 157°51'0 0.0 1017.6 24.4
2018-Apr-22 16:00N 19°49' W 157°51'1 0.8 1017.2 24.4
2018-Apr-22 15:00N 19°49' W 157°50'3 2.9 1016.9 24.4
2018-Apr-22 14:00N 19°50' W 157°47'8 7.9 1016.8 24.4
2018-Apr-22 13:00N 19°53' W 157°40'8 7.9 1016.8 24.4
2018-Apr-22 12:00N 19°50' W 157°47'10 2.6 1017.2 24.4
2018-Apr-22 08:00N 19°53' W 157°37'2 2.1 1018.7 24.6
2018-Apr-22 07:00N 19°55' W 157°35'3 2.6 1018.2 24.7
2018-Apr-22 06:00N 19°56' W 157°33'2 1.6 1017.9 24.8
2018-Apr-22 05:00N 19°57' W 157°32'2 2.1 1017.3 24.8
2018-Apr-22 04:00N 19°58' W 157°30'4 4.1 1016.7 24.8
2018-Apr-22 03:00N 20°01' W 157°26'0 0.0 1016.2 24.8
2018-Apr-22 02:00N 20°01' W 157°26'4 4.1 1016.0 24.8
2018-Apr-22 01:00N 20°03' W 157°23'1 0.6 1016.1 24.8
2018-Apr-22 00:00N 20°03' W 157°23'8 2.7 1016.9 24.8
2018-Apr-21 21:00N 20°08' W 157°17'3 2.9 1018.2 24.6
2018-Apr-21 20:00N 20°10' W 157°14'1 0.8 1018.4 24.5
2018-Apr-21 19:00N 20°11' W 157°14'2 1.8 1018.3 24.5
2018-Apr-21 18:00N 20°11' W 157°12'1 1.1 1017.6 24.5
2018-Apr-21 17:00N 20°11' W 157°11'4 3.6 1017.1 24.6
2018-Apr-21 16:00N 20°13' W 157°07'1 0.6 1016.4 24.6
2018-Apr-21 15:00N 20°13' W 157°07'3 3.4 1016.5 24.7
2018-Apr-21 14:00N 20°13' W 157°03'0 0.0 1016.5 24.7
2018-Apr-21 13:00N 20°13' W 157°03'13 2.5 1017.1 24.8
2018-Apr-21 08:00N 20°16' W 156°50'3 3.4 1018.5 24.8
2018-Apr-21 07:00N 20°16' W 156°46'1 1.1 1017.9 24.8
2018-Apr-21 06:00N 20°16' W 156°45'5 4.5 1017.5 24.8
2018-Apr-21 05:00N 20°16' W 156°40'0 0.0 1017.1 24.8
2018-Apr-21 04:00N 20°16' W 156°40'5 5.2 1016.3 24.9
2018-Apr-21 03:00N 20°17' W 156°35'0 0.0 1015.9 24.9
2018-Apr-21 02:00N 20°17' W 156°35'4 4.0 1015.5 25.0
2018-Apr-21 01:00N 20°18' W 156°31'0 0.0 1015.6 25.1
2018-Apr-21 00:00N 20°18' W 156°31'8 2.5 1016.1 25.2
2018-Apr-20 21:00N 20°16' W 156°23'2 2.1 1017.5 25.4
2018-Apr-20 20:00N 20°15' W 156°21'1 1.1 1017.8 25.5
2018-Apr-20 19:00N 20°15' W 156°20'2 2.5 1017.9 25.6
2018-Apr-20 18:00N 20°13' W 156°18'3 3.3 1017.5 25.7
2018-Apr-20 17:00N 20°11' W 156°15'0 0.0 1017.3 25.8
2018-Apr-20 16:00N 20°11' W 156°15'1 1.3 1016.5 25.9
2018-Apr-20 15:00N 20°11' W 156°14'2 2.5 1016.0 25.9
2018-Apr-20 14:00N 20°09' W 156°12'0 0.0 1015.9 25.9
2018-Apr-20 13:00N 20°09' W 156°12'8 2.0 1015.1 25.9
2018-Apr-20 09:00N 20°01' W 156°10'0 0.0 1017.2 26.1
2018-Apr-20 08:00N 20°01' W 156°10'2 2.4 1017.2 26.1
2018-Apr-20 07:00N 19°59' W 156°10'2 1.8 1016.6 26.2
2018-Apr-20 06:00N 19°57' W 156°10'0 0.0 1016.3 26.2
2018-Apr-20 05:00N 19°57' W 156°10'4 4.2 1015.5 26.2
2018-Apr-20 04:00N 19°53' W 156°10'3 1.6 1014.8 26.3
2018-Apr-20 02:00N 19°50' W 156°11'0 0.0 1014.0 26.3
2018-Apr-20 01:00N 19°50' W 156°11'0 0.0 1014.4 26.4
2018-Apr-20 00:00N 19°50' W 156°11'7 2.5 1014.8 26.4
2018-Apr-19 21:00N 19°43' W 156°13'2 1.9 1016.0 26.5
2018-Apr-19 20:00N 19°41' W 156°12'2 1.9 1016.1 26.3
2018-Apr-19 19:00N 19°39' W 156°11'1 0.8 1016.0 26.0
2018-Apr-19 18:00N 19°38' W 156°11'1 0.8 1015.2 25.9
2018-Apr-19 17:00N 19°38' W 156°11'1 0.6 1015.2 25.9
2018-Apr-19 16:00N 19°37' W 156°11'1 0.6 1014.4 26.0
2018-Apr-19 15:00N 19°37' W 156°11'1 1.3 1013.8 26.0
2018-Apr-19 14:00N 19°37' W 156°12'0 0.0 1014.0 26.0
2018-Apr-19 13:00N 19°37' W 156°12'8 1.5 1014.1 26.0
2018-Apr-19 08:00N 19°34' W 156°20'1 1.1 1016.2 26.0
2018-Apr-19 07:00N 19°34' W 156°21'3 3.1 1015.9 26.0
2018-Apr-19 06:00N 19°33' W 156°24'1 0.6 1015.1 26.1
2018-Apr-19 05:00N 19°33' W 156°25'4 3.8 1014.8 26.2
2018-Apr-19 04:00N 19°31' W 156°28'3 2.6 1013.9 26.4
2018-Apr-19 03:00N 19°30' W 156°31'4 3.8 1013.5 26.5
2018-Apr-19 02:00N 19°28' W 156°34'0 0.0 1013.3 26.5
2018-Apr-19 01:00N 19°28' W 156°34'0 0.0 1013.6 26.3
2018-Apr-19 00:00N 19°28' W 156°34'7 1.8 1014.5 26.2
2018-Apr-18 20:00N 19°26' W 156°41'2 1.7 1015.1 25.9
2018-Apr-18 19:00N 19°26' W 156°43'1 0.6 1015.0 25.9
2018-Apr-18 18:00N 19°26' W 156°44'3 2.6 1014.9 25.9
2018-Apr-18 17:00N 19°25' W 156°46'3 2.8 1014.5 25.9
2018-Apr-18 16:00N 19°25' W 156°49'2 2.3 1013.8 25.9
2018-Apr-18 15:00N 19°25' W 156°52'0 0.0 1013.2 26.0
2018-Apr-18 14:00N 19°25' W 156°52'0 0.0 1013.1 26.0
2018-Apr-18 13:00N 19°25' W 156°52'10 2.4 1013.5 25.9
2018-Apr-18 09:00N 19°25' W 157°02'0 0.0 1016.5 25.9
2018-Apr-18 08:00N 19°25' W 157°02'2 1.7 1016.6 25.9
2018-Apr-18 07:00N 19°25' W 157°04'2 1.7 1016.2 25.9
2018-Apr-18 06:00N 19°25' W 157°05'1 0.6 1015.8 25.9
2018-Apr-18 05:00N 19°25' W 157°06'1 0.6 1015.6 25.9
2018-Apr-18 04:00N 19°25' W 157°07'0 0.0 1015.2 26.0
2018-Apr-18 03:00N 19°25' W 157°07'2 2.1 1014.8 26.0
2018-Apr-18 02:00N 19°26' W 157°08'0 0.0 1014.7 26.0
2018-Apr-18 01:00N 19°26' W 157°08'0 0.0 1015.0 25.9
2018-Apr-18 00:00N 19°26' W 157°08'6 2.0 1015.7 25.9
2018-Apr-17 21:00N 19°29' W 157°14'1 0.8 1017.8 25.8
2018-Apr-17 20:00N 19°29' W 157°14'1 0.8 1018.2 25.8
2018-Apr-17 19:00N 19°28' W 157°15'1 0.6 1018.0 25.7
2018-Apr-17 18:00N 19°29' W 157°15'1 0.6 1017.6 25.7
2018-Apr-17 17:00N 19°29' W 157°16'1 0.6 1016.7 25.7
2018-Apr-17 16:00N 19°29' W 157°16'1 0.6 1016.2 25.7
2018-Apr-17 15:00N 19°29' W 157°16'0 0.0 1015.6 25.7
2018-Apr-17 14:00N 19°29' W 157°16'0 0.0 1015.7 25.8
2018-Apr-17 13:00N 19°29' W 157°16'5 1.0 1016.0 25.7
2018-Apr-17 08:00N 19°32' W 157°20'1 0.6 1018.4 25.8
2018-Apr-17 07:00N 19°33' W 157°20'1 1.1 1018.0 25.7
2018-Apr-17 06:00N 19°33' W 157°22'0 0.0 1017.5 25.6
2018-Apr-17 05:00N 19°33' W 157°22'1 0.6 1016.6 25.5
2018-Apr-17 04:00N 19°34' W 157°22'1 0.6 1015.9 25.3
2018-Apr-17 03:00N 19°34' W 157°22'0 0.0 1015.5 25.2
2018-Apr-17 02:00N 19°34' W 157°22'0 0.0 1015.3 25.3
2018-Apr-17 01:00N 19°34' W 157°22'4 0.8 1015.4 25.3
2018-Apr-16 20:00N 19°38' W 157°22'1 0.6 1017.8 25.2
2018-Apr-16 19:00N 19°38' W 157°22'1 0.6 1017.9 25.1
2018-Apr-16 18:00N 19°39' W 157°22'0 0.0 1017.4 25.2
2018-Apr-16 17:00N 19°39' W 157°22'1 1.3 1017.0 25.3
2018-Apr-16 16:00N 19°40' W 157°21'0 0.0 1016.9 25.3
2018-Apr-16 15:00N 19°40' W 157°21'1 0.6 1016.4 25.3
2018-Apr-16 14:00N 19°40' W 157°21'0 0.0 1015.9 25.3
2018-Apr-16 13:00N 19°40' W 157°21'3 0.7 1016.6 25.3
2018-Apr-16 08:00N 19°42' W 157°18'1 0.6 1018.2 25.4
2018-Apr-16 07:00N 19°43' W 157°18'2 1.6 1017.9 25.3
2018-Apr-16 06:00N 19°44' W 157°17'1 1.3 1017.4 25.3
2018-Apr-16 05:00N 19°44' W 157°16'2 1.8 1017.0 25.3
2018-Apr-16 04:00N 19°45' W 157°14'3 2.9 1016.4 25.4
2018-Apr-16 03:00N 19°47' W 157°11'0 0.0 1015.8 25.6
2018-Apr-16 02:00N 19°47' W 157°11'0 0.0 1015.8 25.7
2018-Apr-16 01:00N 19°47' W 157°11'5 1.1 1016.0 26.1
2018-Apr-15 21:00N 19°50' W 157°08'1 0.6 1018.3 25.6
2018-Apr-15 20:00N 19°50' W 157°08'1 0.6 1018.2 25.5
2018-Apr-15 19:00N 19°50' W 157°08'1 0.8 1018.2 25.5
2018-Apr-15 18:00N 19°50' W 157°08'1 0.6 1017.4 25.5
2018-Apr-15 17:00N 19°50' W 157°08'2 1.7 1017.2 25.4
2018-Apr-15 16:00N 19°50' W 157°07'0 0.0 1016.3 25.5
2018-Apr-15 15:00N 19°50' W 157°07'0 0.0 1015.6 25.5
2018-Apr-15 14:00N 19°50' W 157°07'6 1.1 1015.3 25.5
2018-Apr-15 08:00N 19°49' W 157°00'2 2.3 1017.3 25.7
2018-Apr-15 07:00N 19°48' W 156°58'3 2.9 1016.6 25.7
2018-Apr-15 06:00N 19°49' W 156°55'0 0.0 1015.5 25.8
2018-Apr-15 05:00N 19°49' W 156°55'1 0.6 1014.9 25.8
2018-Apr-15 04:00N 19°49' W 156°54'5 4.7 1014.5 25.8
2018-Apr-15 03:00N 19°50' W 156°49'0 0.0 1013.8 25.8
2018-Apr-15 02:00N 19°50' W 156°49'0 0.0 1014.1 25.9
2018-Apr-15 01:00N 19°50' W 156°49'3 0.7 1013.9 25.8
2018-Apr-14 21:00N 19°47' W 156°47'1 1.3 1015.8 25.7
2018-Apr-14 20:00N 19°47' W 156°46'1 0.6 1015.9 25.7
2018-Apr-14 19:00N 19°47' W 156°46'3 2.6 1015.9 25.7
2018-Apr-14 18:00N 19°46' W 156°43'1 1.1 1015.6 25.7
2018-Apr-14 17:00N 19°46' W 156°42'   1014.9 25.7
Track history (hours):
 
Tides and Currents Weather Stations Pressure Air Temp Water Temp Dewpoint Dewpoint Depression Visibility Wind Speed Wind Dir Waves Ship Positions

Drifting buoy 46770

Last reported at 2018-Apr-24 17:00 UTC. Time now 2018-Apr-24 18:15 UTC.
Position N 19°31' W 158°36'.

Barometer 1017.1 mb
Water temperature 25.1 ° C

Date/timePositionNaut miles runAvg speedWind from/ knotsBaromVisibWave heightAir tempDewpointWater temp
2018-Apr-24 17:00N 19°31' W 158°36'0 0.0 1017.1 25.1
2018-Apr-24 16:00N 19°31' W 158°36'2 1.6 1016.3 25.1
2018-Apr-24 15:00N 19°32' W 158°35'0 0.0 1015.9 25.2
2018-Apr-24 14:00N 19°32' W 158°35'6 1.0 1015.8 25.2
2018-Apr-24 08:00N 19°36' W 158°30'1 0.8 1017.9 25.2
2018-Apr-24 07:00N 19°37' W 158°29'1 1.3 1017.4 25.3
2018-Apr-24 06:00N 19°37' W 158°28'1 0.6 1017.1 25.3
2018-Apr-24 05:00N 19°37' W 158°28'0 0.0 1016.8 25.3
2018-Apr-24 04:00N 19°37' W 158°28'2 2.1 1015.9 25.4
2018-Apr-24 03:00N 19°38' W 158°26'0 0.0 1015.4 25.4
2018-Apr-24 02:00N 19°38' W 158°26'5 0.9 1015.3 25.4
2018-Apr-23 21:00N 19°41' W 158°22'1 0.8 1017.7 25.2
2018-Apr-23 20:00N 19°41' W 158°21'1 0.8 1017.9 25.2
2018-Apr-23 19:00N 19°42' W 158°20'0 0.0 1017.6 25.2
2018-Apr-23 18:00N 19°42' W 158°20'1 1.1 1017.5 25.2
2018-Apr-23 17:00N 19°42' W 158°19'1 0.6 1017.0 25.1
2018-Apr-23 16:00N 19°42' W 158°19'1 1.1 1016.5 25.1
2018-Apr-23 15:00N 19°42' W 158°17'0 0.0 1016.1 25.1
2018-Apr-23 14:00N 19°42' W 158°17'6 6.4 1016.0 25.1
2018-Apr-23 13:00N 19°45' W 158°11'0 0.0 1016.0 25.1
2018-Apr-23 12:00N 19°45' W 158°11'0 0.0 1016.6 25.1
2018-Apr-23 08:00N 19°45' W 158°11'1 0.8 1018.3 25.0
2018-Apr-23 07:00N 19°46' W 158°11'1 1.3 1018.0 25.0
2018-Apr-23 06:00N 19°46' W 158°10'0 0.0 1017.4 25.1
2018-Apr-23 05:00N 19°46' W 158°10'1 0.6 1016.6 25.1
2018-Apr-23 04:00N 19°46' W 158°09'1 0.6 1015.9 25.1
2018-Apr-23 03:00N 19°46' W 158°08'2 2.3 1015.4 25.2
2018-Apr-23 02:00N 19°46' W 158°06'2 1.8 1015.4 25.1
2018-Apr-23 01:00N 19°47' W 158°04'4 4.1 1015.5 25.1
2018-Apr-23 00:00N 19°48' W 158°00'0 0.0 1015.9 25.0
2018-Apr-22 23:00N 19°48' W 158°00'0 0.0 1016.6 24.8
2018-Apr-22 21:00N 19°48' W 158°00'1 1.1 1017.5 24.6
2018-Apr-22 20:00N 19°48' W 157°59'1 1.3 1017.7 24.5
2018-Apr-22 19:00N 19°49' W 157°58'2 1.7 1017.9 24.5
2018-Apr-22 18:00N 19°49' W 157°56'5 4.5 1017.7 24.4
2018-Apr-22 17:00N 19°49' W 157°51'0 0.0 1017.6 24.4
2018-Apr-22 16:00N 19°49' W 157°51'1 0.8 1017.2 24.4
2018-Apr-22 15:00N 19°49' W 157°50'3 2.9 1016.9 24.4
2018-Apr-22 14:00N 19°50' W 157°47'8 7.9 1016.8 24.4
2018-Apr-22 13:00N 19°53' W 157°40'8 7.9 1016.8 24.4
2018-Apr-22 12:00N 19°50' W 157°47'10 2.6 1017.2 24.4
2018-Apr-22 08:00N 19°53' W 157°37'2 2.1 1018.7 24.6
2018-Apr-22 07:00N 19°55' W 157°35'3 2.6 1018.2 24.7
2018-Apr-22 06:00N 19°56' W 157°33'2 1.6 1017.9 24.8
2018-Apr-22 05:00N 19°57' W 157°32'2 2.1 1017.3 24.8
2018-Apr-22 04:00N 19°58' W 157°30'4 4.1 1016.7 24.8
2018-Apr-22 03:00N 20°01' W 157°26'0 0.0 1016.2 24.8
2018-Apr-22 02:00N 20°01' W 157°26'4 4.1 1016.0 24.8
2018-Apr-22 01:00N 20°03' W 157°23'1 0.6 1016.1 24.8
2018-Apr-22 00:00N 20°03' W 157°23'8 2.7 1016.9 24.8
2018-Apr-21 21:00N 20°08' W 157°17'3 2.9 1018.2 24.6
2018-Apr-21 20:00N 20°10' W 157°14'1 0.8 1018.4 24.5
2018-Apr-21 19:00N 20°11' W 157°14'2 1.8 1018.3 24.5
2018-Apr-21 18:00N 20°11' W 157°12'1 1.1 1017.6 24.5
2018-Apr-21 17:00N 20°11' W 157°11'4 3.6 1017.1 24.6
2018-Apr-21 16:00N 20°13' W 157°07'1 0.6 1016.4 24.6
2018-Apr-21 15:00N 20°13' W 157°07'3 3.4 1016.5 24.7
2018-Apr-21 14:00N 20°13' W 157°03'0 0.0 1016.5 24.7
2018-Apr-21 13:00N 20°13' W 157°03'13 2.5 1017.1 24.8
2018-Apr-21 08:00N 20°16' W 156°50'3 3.4 1018.5 24.8
2018-Apr-21 07:00N 20°16' W 156°46'1 1.1 1017.9 24.8
2018-Apr-21 06:00N 20°16' W 156°45'5 4.5 1017.5 24.8
2018-Apr-21 05:00N 20°16' W 156°40'0 0.0 1017.1 24.8
2018-Apr-21 04:00N 20°16' W 156°40'5 5.2 1016.3 24.9
2018-Apr-21 03:00N 20°17' W 156°35'0 0.0 1015.9 24.9
2018-Apr-21 02:00N 20°17' W 156°35'4 4.0 1015.5 25.0
2018-Apr-21 01:00N 20°18' W 156°31'0 0.0 1015.6 25.1
2018-Apr-21 00:00N 20°18' W 156°31'8 2.5 1016.1 25.2
2018-Apr-20 21:00N 20°16' W 156°23'2 2.1 1017.5 25.4
2018-Apr-20 20:00N 20°15' W 156°21'1 1.1 1017.8 25.5
2018-Apr-20 19:00N 20°15' W 156°20'2 2.5 1017.9 25.6
2018-Apr-20 18:00N 20°13' W 156°18'3 3.3 1017.5 25.7
2018-Apr-20 17:00N 20°11' W 156°15'0 0.0 1017.3 25.8
2018-Apr-20 16:00N 20°11' W 156°15'1 1.3 1016.5 25.9
2018-Apr-20 15:00N 20°11' W 156°14'2 2.5 1016.0 25.9
2018-Apr-20 14:00N 20°09' W 156°12'0 0.0 1015.9 25.9
2018-Apr-20 13:00N 20°09' W 156°12'8 2.0 1015.1 25.9
2018-Apr-20 09:00N 20°01' W 156°10'0 0.0 1017.2 26.1
2018-Apr-20 08:00N 20°01' W 156°10'2 2.4 1017.2 26.1
2018-Apr-20 07:00N 19°59' W 156°10'2 1.8 1016.6 26.2
2018-Apr-20 06:00N 19°57' W 156°10'0 0.0 1016.3 26.2
2018-Apr-20 05:00N 19°57' W 156°10'4 4.2 1015.5 26.2
2018-Apr-20 04:00N 19°53' W 156°10'3 1.6 1014.8 26.3
2018-Apr-20 02:00N 19°50' W 156°11'0 0.0 1014.0 26.3
2018-Apr-20 01:00N 19°50' W 156°11'0 0.0 1014.4 26.4
2018-Apr-20 00:00N 19°50' W 156°11'7 2.5 1014.8 26.4
2018-Apr-19 21:00N 19°43' W 156°13'2 1.9 1016.0 26.5
2018-Apr-19 20:00N 19°41' W 156°12'2 1.9 1016.1 26.3
2018-Apr-19 19:00N 19°39' W 156°11'1 0.8 1016.0 26.0
2018-Apr-19 18:00N 19°38' W 156°11'1 0.8 1015.2 25.9
2018-Apr-19 17:00N 19°38' W 156°11'1 0.6 1015.2 25.9
2018-Apr-19 16:00N 19°37' W 156°11'1 0.6 1014.4 26.0
2018-Apr-19 15:00N 19°37' W 156°11'1 1.3 1013.8 26.0
2018-Apr-19 14:00N 19°37' W 156°12'0 0.0 1014.0 26.0
2018-Apr-19 13:00N 19°37' W 156°12'8 1.5 1014.1 26.0
2018-Apr-19 08:00N 19°34' W 156°20'1 1.1 1016.2 26.0
2018-Apr-19 07:00N 19°34' W 156°21'3 3.1 1015.9 26.0
2018-Apr-19 06:00N 19°33' W 156°24'1 0.6 1015.1 26.1
2018-Apr-19 05:00N 19°33' W 156°25'4 3.8 1014.8 26.2
2018-Apr-19 04:00N 19°31' W 156°28'3 2.6 1013.9 26.4
2018-Apr-19 03:00N 19°30' W 156°31'4 3.8 1013.5 26.5
2018-Apr-19 02:00N 19°28' W 156°34'0 0.0 1013.3 26.5
2018-Apr-19 01:00N 19°28' W 156°34'0 0.0 1013.6 26.3
2018-Apr-19 00:00N 19°28' W 156°34'7 1.8 1014.5 26.2
2018-Apr-18 20:00N 19°26' W 156°41'2 1.7 1015.1 25.9
2018-Apr-18 19:00N 19°26' W 156°43'1 0.6 1015.0 25.9
2018-Apr-18 18:00N 19°26' W 156°44'3 2.6 1014.9 25.9
2018-Apr-18 17:00N 19°25' W 156°46'3 2.8 1014.5 25.9
2018-Apr-18 16:00N 19°25' W 156°49'2 2.3 1013.8 25.9
2018-Apr-18 15:00N 19°25' W 156°52'0 0.0 1013.2 26.0
2018-Apr-18 14:00N 19°25' W 156°52'0 0.0 1013.1 26.0
2018-Apr-18 13:00N 19°25' W 156°52'10 2.4 1013.5 25.9
2018-Apr-18 09:00N 19°25' W 157°02'0 0.0 1016.5 25.9
2018-Apr-18 08:00N 19°25' W 157°02'2 1.7 1016.6 25.9
2018-Apr-18 07:00N 19°25' W 157°04'2 1.7 1016.2 25.9
2018-Apr-18 06:00N 19°25' W 157°05'1 0.6 1015.8 25.9
2018-Apr-18 05:00N 19°25' W 157°06'1 0.6 1015.6 25.9
2018-Apr-18 04:00N 19°25' W 157°07'0 0.0 1015.2 26.0
2018-Apr-18 03:00N 19°25' W 157°07'2 2.1 1014.8 26.0
2018-Apr-18 02:00N 19°26' W 157°08'0 0.0 1014.7 26.0
2018-Apr-18 01:00N 19°26' W 157°08'0 0.0 1015.0 25.9
2018-Apr-18 00:00N 19°26' W 157°08'6 2.0 1015.7 25.9
2018-Apr-17 21:00N 19°29' W 157°14'1 0.8 1017.8 25.8
2018-Apr-17 20:00N 19°29' W 157°14'1 0.8 1018.2 25.8
2018-Apr-17 19:00N 19°28' W 157°15'1 0.6 1018.0 25.7
2018-Apr-17 18:00N 19°29' W 157°15'1 0.6 1017.6 25.7
2018-Apr-17 17:00N 19°29' W 157°16'1 0.6 1016.7 25.7
2018-Apr-17 16:00N 19°29' W 157°16'1 0.6 1016.2 25.7
2018-Apr-17 15:00N 19°29' W 157°16'0 0.0 1015.6 25.7
2018-Apr-17 14:00N 19°29' W 157°16'0 0.0 1015.7 25.8
2018-Apr-17 13:00N 19°29' W 157°16'5 1.0 1016.0 25.7
2018-Apr-17 08:00N 19°32' W 157°20'1 0.6 1018.4 25.8
2018-Apr-17 07:00N 19°33' W 157°20'1 1.1 1018.0 25.7
2018-Apr-17 06:00N 19°33' W 157°22'0 0.0 1017.5 25.6
2018-Apr-17 05:00N 19°33' W 157°22'1 0.6 1016.6 25.5
2018-Apr-17 04:00N 19°34' W 157°22'1 0.6 1015.9 25.3
2018-Apr-17 03:00N 19°34' W 157°22'0 0.0 1015.5 25.2
2018-Apr-17 02:00N 19°34' W 157°22'0 0.0 1015.3 25.3
2018-Apr-17 01:00N 19°34' W 157°22'4 0.8 1015.4 25.3
2018-Apr-16 20:00N 19°38' W 157°22'1 0.6 1017.8 25.2
2018-Apr-16 19:00N 19°38' W 157°22'1 0.6 1017.9 25.1
2018-Apr-16 18:00N 19°39' W 157°22'0 0.0 1017.4 25.2
2018-Apr-16 17:00N 19°39' W 157°22'1 1.3 1017.0 25.3
2018-Apr-16 16:00N 19°40' W 157°21'0 0.0 1016.9 25.3
2018-Apr-16 15:00N 19°40' W 157°21'1 0.6 1016.4 25.3
2018-Apr-16 14:00N 19°40' W 157°21'0 0.0 1015.9 25.3
2018-Apr-16 13:00N 19°40' W 157°21'3 0.7 1016.6 25.3
2018-Apr-16 08:00N 19°42' W 157°18'1 0.6 1018.2 25.4
2018-Apr-16 07:00N 19°43' W 157°18'2 1.6 1017.9 25.3
2018-Apr-16 06:00N 19°44' W 157°17'1 1.3 1017.4 25.3
2018-Apr-16 05:00N 19°44' W 157°16'2 1.8 1017.0 25.3
2018-Apr-16 04:00N 19°45' W 157°14'3 2.9 1016.4 25.4
2018-Apr-16 03:00N 19°47' W 157°11'0 0.0 1015.8 25.6
2018-Apr-16 02:00N 19°47' W 157°11'0 0.0 1015.8 25.7
2018-Apr-16 01:00N 19°47' W 157°11'5 1.1 1016.0 26.1
2018-Apr-15 21:00N 19°50' W 157°08'1 0.6 1018.3 25.6
2018-Apr-15 20:00N 19°50' W 157°08'1 0.6 1018.2 25.5
2018-Apr-15 19:00N 19°50' W 157°08'1 0.8 1018.2 25.5
2018-Apr-15 18:00N 19°50' W 157°08'1 0.6 1017.4 25.5
2018-Apr-15 17:00N 19°50' W 157°08'2 1.7 1017.2 25.4
2018-Apr-15 16:00N 19°50' W 157°07'0 0.0 1016.3 25.5
2018-Apr-15 15:00N 19°50' W 157°07'0 0.0 1015.6 25.5
2018-Apr-15 14:00N 19°50' W 157°07'6 1.1 1015.3 25.5
2018-Apr-15 08:00N 19°49' W 157°00'2 2.3 1017.3 25.7
2018-Apr-15 07:00N 19°48' W 156°58'3 2.9 1016.6 25.7
2018-Apr-15 06:00N 19°49' W 156°55'0 0.0 1015.5 25.8
2018-Apr-15 05:00N 19°49' W 156°55'1 0.6 1014.9 25.8
2018-Apr-15 04:00N 19°49' W 156°54'5 4.7 1014.5 25.8
2018-Apr-15 03:00N 19°50' W 156°49'0 0.0 1013.8 25.8
2018-Apr-15 02:00N 19°50' W 156°49'0 0.0 1014.1 25.9
2018-Apr-15 01:00N 19°50' W 156°49'3 0.7 1013.9 25.8
2018-Apr-14 21:00N 19°47' W 156°47'1 1.3 1015.8 25.7
2018-Apr-14 20:00N 19°47' W 156°46'1 0.6 1015.9 25.7
2018-Apr-14 19:00N 19°47' W 156°46'3 2.6 1015.9 25.7
2018-Apr-14 18:00N 19°46' W 156°43'1 1.1 1015.6 25.7
2018-Apr-14 17:00N 19°46' W 156°42'   1014.9 25.7

Dump ship's entire track history